Strona główna
METAR-TAF:

METAR-TAF

Lotnisko :

Port lotniczy Dallas-Fort Worth

Dallas / Fort Worth, Teksas, Stany Zjednoczone

Szerokość geograficzna: 32-53-49N, Długość geograficzna: 097-01-19W, wysokość: 183 m

Aktualna obserwacja pogody

Raport powstał 1 godzina i 0 minut temu, godzina 23:53 UTC
Wiatr 6 kt od południowo-południowy wschód
Temperatura 39°C
Wilgotność 24%
Ciśnienie 1013 hPa
Widzialność: 16.1 km
Mało chmury na wysokości 10000 ft

METAR: KDFW 172353Z 16006KT 10SM FEW100 39/15 A2990 RMK AO2 SLP113 T03890150 10400 20367 56015

czas: 19:53 (00:53 UTC)

Prognoza

Raport powstał 1 godzina i 33 minut temu, godzina 23:20 UTC
Prognoza ważna od 18 godzina 00 UTC do 19 godzina 06 UTC
Wiatr 9 kt od południe
Widzialność: 10 km
Mało chmury na wysokości 10000 ft
Rozproszone chmury na wysokości 25000 ft

TAF: KDFW 172320Z 1800/1906 18009KT P6SM FEW100 SCT250

Obserwacja i prognoza pogody dla ponad 4000 lotnisk (raport METAR i TAF).

Dostępne stacje oznaczono żółtymi i czerwonymi punktami na mapie.

Najedź kursorem aby zobaczyć nazwę stacji.

Kliknij aby zobaczyć obserwacje i prognozy pogody.

Aby zmienić mapę: kliknij na zielony przycisk z czarnym krzyżykiem, aby powiększyć; na zielony przycisk z myślnikiem, aby pomniejszyć; na zielone strzałki, aby przejść do map sąsiednich.


METAR-TAF: